createdAt,value
2023-02-17T00:12:51.185Z,10.10
2023-02-17T00:15:19.415Z,10.20
2023-02-17T00:17:47.862Z,10.20
2023-02-17T00:20:16.249Z,10.30
2023-02-17T00:22:44.465Z,10.30
2023-02-17T00:25:12.712Z,10.40
2023-02-17T00:27:40.930Z,10.40
2023-02-17T00:30:11.323Z,10.50
2023-02-17T00:32:39.495Z,10.50
2023-02-17T00:35:08.319Z,10.50
2023-02-17T00:37:36.767Z,10.50
2023-02-17T00:40:05.319Z,10.60
2023-02-17T00:42:35.831Z,10.60
2023-02-17T00:45:04.016Z,10.60
2023-02-17T00:47:36.039Z,10.70
2023-02-17T00:50:04.335Z,10.80
2023-02-17T00:52:32.490Z,10.80
2023-02-17T00:55:00.656Z,10.90
2023-02-17T00:57:32.435Z,10.90
2023-02-17T01:00:29.633Z,11.00
2023-02-17T01:02:59.288Z,11.10
2023-02-17T01:05:42.736Z,11.10
2023-02-17T01:08:11.462Z,11.20
2023-02-17T01:10:40.478Z,11.20
2023-02-17T01:13:10.973Z,11.30
2023-02-17T01:15:39.832Z,11.30
2023-02-17T01:18:09.535Z,11.30
2023-02-17T01:20:56.611Z,11.40
2023-02-17T01:23:49.798Z,11.40
2023-02-17T01:26:21.596Z,11.60
2023-02-17T01:28:53.103Z,11.60
2023-02-17T01:31:23.341Z,11.60
2023-02-17T01:33:53.009Z,11.60
2023-02-17T01:36:21.860Z,11.70
2023-02-17T01:38:50.380Z,11.70
2023-02-17T01:41:21.346Z,11.70
2023-02-17T01:44:20.612Z,11.80
2023-02-17T01:46:50.455Z,11.80
2023-02-17T01:49:29.749Z,11.70
2023-02-17T01:52:06.875Z,11.60
2023-02-17T01:54:40.710Z,11.60
2023-02-17T01:57:12.327Z,11.60
2023-02-17T01:59:42.915Z,11.50
2023-02-17T02:02:11.411Z,11.50
2023-02-17T02:04:48.177Z,11.50
2023-02-17T02:07:21.636Z,11.50
2023-02-17T02:09:54.866Z,11.50
2023-02-17T02:12:25.453Z,11.50
2023-02-17T02:14:56.259Z,11.50
2023-02-17T02:17:36.782Z,11.60
2023-02-17T02:20:38.436Z,11.60
2023-02-17T02:23:39.303Z,11.70
2023-02-17T02:26:40.841Z,11.70
2023-02-17T02:29:31.451Z,11.80
2023-02-17T02:32:19.486Z,11.80
2023-02-17T02:34:56.081Z,11.80
2023-02-17T02:37:29.991Z,11.90
2023-02-17T02:40:02.380Z,11.90
2023-02-17T02:42:31.640Z,11.90
2023-02-17T02:44:59.887Z,11.80
2023-02-17T02:47:44.943Z,11.80
2023-02-17T02:50:18.285Z,11.60
2023-02-17T02:53:09.352Z,11.50
2023-02-17T02:55:50.067Z,11.40
2023-02-17T02:58:24.418Z,11.40
2023-02-17T03:01:03.534Z,11.40
2023-02-17T03:03:43.087Z,11.40
2023-02-17T03:21:54.827Z,11.80
2023-02-17T03:24:23.164Z,11.80
2023-02-17T03:26:51.817Z,11.90
2023-02-17T03:29:20.112Z,11.90
2023-02-17T03:31:48.599Z,12.00
2023-02-17T03:34:16.803Z,12.00
2023-02-17T03:36:45.002Z,12.00
2023-02-17T03:39:14.528Z,12.10
2023-02-17T03:41:42.739Z,12.10
2023-02-17T03:44:13.280Z,12.10
2023-02-17T03:46:41.715Z,12.10
2023-02-17T03:49:11.623Z,12.10
2023-02-17T03:51:41.347Z,12.10
2023-02-17T03:54:09.475Z,12.10
2023-02-17T03:56:41.183Z,12.10
2023-02-17T03:59:10.562Z,12.10
2023-02-17T04:01:41.394Z,12.20
2023-02-17T04:04:09.718Z,12.10
2023-02-17T04:06:38.316Z,12.10
2023-02-17T04:09:06.642Z,12.10
2023-02-17T04:11:34.816Z,12.10
2023-02-17T04:14:06.546Z,12.10
2023-02-17T04:16:34.880Z,12.10
2023-02-17T04:19:03.134Z,12.10
2023-02-17T04:21:31.335Z,12.10
2023-02-17T04:24:01.686Z,12.00
2023-02-17T04:26:30.523Z,12.00
2023-02-17T04:29:00.911Z,11.90
2023-02-17T04:31:30.596Z,11.80
2023-02-17T04:33:58.835Z,11.70
2023-02-17T04:36:27.037Z,11.70
2023-02-17T04:38:55.182Z,11.60
2023-02-17T04:41:23.416Z,11.50
2023-02-17T04:43:53.974Z,11.60
2023-02-17T04:46:22.187Z,11.50
2023-02-17T04:48:51.768Z,11.50
2023-02-17T04:51:19.853Z,11.30
2023-02-17T04:53:48.037Z,11.50
2023-02-17T04:56:16.772Z,11.50
2023-02-17T04:58:44.958Z,11.50
2023-02-17T05:01:13.206Z,11.50
2023-02-17T05:03:42.146Z,11.50
2023-02-17T05:06:11.763Z,11.50
2023-02-17T05:08:39.926Z,11.60
2023-02-17T05:11:08.091Z,11.50
2023-02-17T05:13:36.256Z,11.60
2023-02-17T05:16:06.998Z,11.50
2023-02-17T05:18:37.551Z,11.50
2023-02-17T05:21:06.109Z,11.50
2023-02-17T05:23:41.061Z,11.50
2023-02-17T05:26:09.774Z,11.60
2023-02-17T05:28:38.456Z,11.50
2023-02-17T05:31:06.948Z,11.50
2023-02-17T05:33:35.322Z,11.60
2023-02-17T05:36:04.844Z,11.60
2023-02-17T05:38:33.510Z,11.60
2023-02-17T05:41:03.122Z,11.60
2023-02-17T05:43:33.711Z,11.60
2023-02-17T05:50:11.540Z,11.80
2023-02-17T05:52:40.236Z,11.70
2023-02-17T05:55:18.983Z,11.70
2023-02-17T05:57:48.887Z,11.70
2023-02-17T06:00:17.955Z,11.70
2023-02-17T06:02:46.144Z,11.70
2023-02-17T06:05:16.565Z,11.70
2023-02-17T06:07:44.762Z,11.70
2023-02-17T06:10:13.496Z,11.80
2023-02-17T06:12:41.958Z,11.80
2023-02-17T06:15:11.717Z,11.80
2023-02-17T06:17:40.108Z,11.80
2023-02-17T06:20:12.112Z,11.80
2023-02-17T06:22:40.800Z,11.80
2023-02-17T06:25:09.416Z,11.80
2023-02-17T06:27:37.723Z,11.80
2023-02-17T06:30:07.141Z,11.90
2023-02-17T06:32:36.859Z,11.90
2023-02-17T06:35:05.062Z,11.90
2023-02-17T06:37:33.189Z,11.90
2023-02-17T06:40:01.353Z,11.90
2023-02-17T06:42:32.070Z,11.90
2023-02-17T06:45:00.827Z,12.00
2023-02-17T06:47:28.987Z,12.00
2023-02-17T06:49:58.587Z,12.00
2023-02-17T06:52:26.814Z,12.00
2023-02-17T06:54:55.062Z,12.00
2023-02-17T06:57:23.234Z,12.10
2023-02-17T06:59:51.446Z,12.10
2023-02-17T07:02:19.711Z,12.10
2023-02-17T07:04:47.931Z,12.10
2023-02-17T07:07:17.608Z,12.10
2023-02-17T07:09:45.840Z,12.10
2023-02-17T07:12:13.960Z,12.10
2023-02-17T07:14:44.262Z,12.20
2023-02-17T07:17:12.455Z,12.20
2023-02-17T07:19:40.604Z,12.20
2023-02-17T07:22:10.985Z,12.20
2023-02-17T07:24:40.553Z,12.20
2023-02-17T07:27:10.703Z,12.20
2023-02-17T07:29:39.454Z,12.20
2023-02-17T07:32:07.808Z,12.20
2023-02-17T07:34:36.076Z,12.20
2023-02-17T07:37:04.320Z,12.20
2023-02-17T07:39:32.736Z,12.20
2023-02-17T07:42:05.102Z,12.20
2023-02-17T07:44:36.679Z,12.30
2023-02-17T07:47:07.992Z,12.30
2023-02-17T07:49:36.585Z,12.30
2023-02-17T07:52:05.614Z,12.30
2023-02-17T07:54:36.258Z,12.30
2023-02-17T08:04:55.694Z,12.40
2023-02-17T10:32:17.268Z,14.30
2023-02-17T10:36:59.051Z,14.30
2023-02-17T11:01:03.426Z,14.70
2023-02-17T11:32:31.746Z,14.40
2023-02-17T12:28:28.588Z,14.90
2023-02-17T12:31:06.986Z,15.10
2023-02-17T12:55:07.436Z,15.40
2023-02-17T12:57:51.232Z,15.50
2023-02-17T13:10:16.815Z,15.60
2023-02-17T13:13:13.373Z,15.70
2023-02-17T13:19:52.187Z,15.80
2023-02-17T14:06:14.999Z,15.80
2023-02-17T17:31:54.206Z,15.20
2023-02-17T17:34:45.729Z,15.40
2023-02-17T17:37:42.356Z,15.30
2023-02-17T17:40:33.690Z,15.40
2023-02-17T17:43:58.130Z,15.40
2023-02-17T17:50:56.609Z,15.60
2023-02-17T17:57:04.461Z,15.60
2023-02-17T17:59:57.656Z,15.70
2023-02-17T18:05:59.698Z,15.70
2023-02-17T18:18:28.038Z,15.60
2023-02-17T18:28:43.363Z,14.60
2023-02-17T18:42:57.846Z,13.50
2023-02-17T18:45:34.354Z,13.30
2023-02-17T18:48:33.186Z,13.30
2023-02-17T18:51:49.821Z,13.10
2023-02-17T19:05:06.859Z,13.10
2023-02-17T19:07:54.706Z,13.10
2023-02-17T19:11:18.138Z,13.20
2023-02-17T19:13:55.423Z,13.20
2023-02-17T19:16:41.761Z,13.30
2023-02-17T19:19:34.110Z,13.30
2023-02-17T19:26:26.122Z,13.40
2023-02-17T19:29:35.716Z,13.50
2023-02-17T19:32:12.975Z,13.50
2023-02-17T19:34:45.918Z,13.50
2023-02-17T19:41:56.468Z,13.50
2023-02-17T21:23:20.453Z,13.50
2023-02-17T21:26:22.562Z,13.40
2023-02-17T21:49:02.223Z,13.40
2023-02-17T21:54:53.774Z,13.50
2023-02-17T21:57:27.298Z,13.50
2023-02-17T22:00:12.767Z,13.50
2023-02-17T22:02:47.528Z,13.60
2023-02-17T22:05:27.944Z,13.60
2023-02-17T22:19:37.511Z,12.50
2023-02-17T22:22:06.409Z,12.10
2023-02-17T22:27:44.289Z,11.80
2023-02-17T22:30:16.308Z,11.70
2023-02-17T22:32:53.166Z,11.70
2023-02-17T22:35:22.180Z,11.60
2023-02-17T22:38:00.551Z,11.60
2023-02-17T22:40:36.572Z,11.60
2023-02-17T22:43:08.847Z,11.60
2023-02-17T22:45:41.183Z,11.60
2023-02-17T22:52:00.250Z,11.50
2023-02-17T22:54:33.641Z,11.50
2023-02-17T22:57:18.471Z,11.40
2023-02-17T23:18:24.633Z,11.50
2023-02-17T23:20:56.613Z,11.50
2023-02-17T23:23:30.576Z,11.60
2023-02-17T23:28:48.897Z,11.60
2023-02-17T23:31:17.627Z,11.70
2023-02-17T23:45:11.038Z,11.90
2023-02-17T23:47:50.577Z,11.90
2023-02-17T23:50:22.122Z,11.80
2023-02-17T23:52:51.901Z,11.90
2023-02-17T23:55:23.190Z,12.00
2023-02-17T23:57:52.654Z,12.00
